Heerenveen, Netherlands
Current Conditions -  °F | °C
As of 2:25 PM on Saturday 25 Oct 2014 (Local Time) from EHLW Reporting Station
Overcast Overcast  
Wind Chill: 57°   Ceiling: 4100
Heat Index: 57°   Visibility: 6mi
Dew Point: 48°   Wind: 8mph
Humidity: 72%   Direction: 240°WSW
Pressure: 30.03"   Gusts: NA
Location:  52.96°N, 5.92°E
Report Text: EHLW 251225Z AUTO 24007KT 9999 BKN041 OVC045 14/09 Q1017 BLU
Loading
Personal Weather Stations






























Interactive Weather Map
Tropical Storm Tracking
New forecast layout! Learn more

10-Day Weather Forecast

Advertisements
Track Severe Weather on mobile